WetterOnline ( https://www.wetteronline.de )

Wetter aktuell Stromboli

Aktuelles Wetter: Messina (51m)

6-stündlich | Neueste Meldungen
Ortszeit Temperatur Wetter
Sa, 31.10. 19:00 19.0° C leicht bewölkt
Sa, 31.10. 13:00 21.8° C fast wolkenlos
Sa, 31.10. 7:00 17.6° C leicht bewölkt
Sa, 31.10. 1:00 17.6° C leicht bewölkt
Fr, 30.10. 19:00 19.2° C leicht bewölkt
Fr, 30.10. 13:00 22.6° C wolkig
Fr, 30.10. 7:00 17.4° C leicht bewölkt
Fr, 30.10. 1:00 18.2° C leicht bewölkt
Ortszeit Temperatur Wetter
Sa, 31.10. 20:00 18.8° C wolkig
Sa, 31.10. 19:55 19° C leicht bewölkt
Sa, 31.10. 19:00 19.0° C leicht bewölkt
Sa, 31.10. 18:55 19° C leicht bewölkt
Sa, 31.10. 18:00 19.2° C leicht bewölkt
Sa, 31.10. 17:55 19° C leicht bewölkt
Sa, 31.10. 17:00 19.6° C leicht bewölkt
Ortszeit Relative Feuchte Sichtweite
Sa, 31.10. 19:00 76% 20 km
Sa, 31.10. 13:00 49% 25 km
Sa, 31.10. 7:00 87% 16 km
Sa, 31.10. 1:00 85% 16 km
Fr, 30.10. 19:00 74% 15 km
Fr, 30.10. 13:00 49% 20 km
Fr, 30.10. 7:00 80% 20 km
Fr, 30.10. 1:00 67% 15 km
Ortszeit Relative Feuchte Sichtweite
Sa, 31.10. 20:00 77% 20 km
Sa, 31.10. 19:55 78% >10 km
Sa, 31.10. 19:00 76% 20 km
Sa, 31.10. 18:55 78% >10 km
Sa, 31.10. 18:00 74% 20 km
Sa, 31.10. 17:55 73% >10 km
Sa, 31.10. 17:00 71% 20 km
Ortszeit Niederschlagsmenge Niederschlagsart
Sa, 31.10. 19:00 0.0 l/m2 in 12 Std. -
Sa, 31.10. 13:00 0.0 l/m2 in 6 Std. -
Sa, 31.10. 7:00 0.0 l/m2 in 12 Std. -
Sa, 31.10. 1:00 0.0 l/m2 in 6 Std. -
Fr, 30.10. 19:00 0.0 l/m2 in 12 Std. -
Fr, 30.10. 13:00 0.0 l/m2 in 6 Std. -
Fr, 30.10. 7:00 0.1 l/m2 in 12 Std. -
Fr, 30.10. 1:00 0.1 l/m2 in 6 Std. Sprühregen
Ortszeit Niederschlagsmenge Niederschlagsart
Sa, 31.10. 20:00 keine Meldung -
Sa, 31.10. 19:55 keine Meldung -
Sa, 31.10. 19:00 keine Meldung -
Sa, 31.10. 18:55 keine Meldung -
Sa, 31.10. 18:00 keine Meldung -
Sa, 31.10. 17:55 keine Meldung -
Sa, 31.10. 17:00 keine Meldung -
Ortszeit Stärke Spitze Richtung
km/h Bft. km/h Grad Sektor
Sa, 31.10. 19:00 7 2 - 10° N
Sa, 31.10. 13:00 9 2 - 360° N
Sa, 31.10. 7:00 9 2 - 310° NW
Sa, 31.10. 1:00 6 1 - 340° N
Fr, 30.10. 19:00 4 1 - - -
Fr, 30.10. 13:00 11 2 - 80° O
Fr, 30.10. 7:00 7 2 - 300° NW
Fr, 30.10. 1:00 19 3 - 300° NW
Ortszeit Stärke Spitze Richtung
km/h Bft. km/h Grad Sektor
Sa, 31.10. 20:00 7 2 - 20° N
Sa, 31.10. 19:55 7 2 - 20° N
Sa, 31.10. 19:00 7 2 - 10° N
Sa, 31.10. 18:55 7 2 - 10° N
Sa, 31.10. 18:00 7 2 - 30° NO
Sa, 31.10. 17:55 7 2 - 30° NO
Sa, 31.10. 17:00 7 2 - 30° NO
Ortszeit Untergrenze Bedeckung Gattung
total tief tief mittel hoch
Sa, 31.10. 19:00 750 m 3/8 3/8 Cu - -
Sa, 31.10. 13:00 900 m 1/8 1/8 Cu - -
Sa, 31.10. 7:00 750 m 2/8 2/8 Sc - -
Sa, 31.10. 1:00 900 m 3/8 3/8 Sc - -
Fr, 30.10. 19:00 600 m 4/8 4/8 Cu - -
Fr, 30.10. 13:00 1050 m 8/8 3/8 Sc Ac Cs
Fr, 30.10. 7:00 900 m 5/8 3/8 Sc Ac -
Fr, 30.10. 1:00 900 m 5/8 2/8 Sc Ac -
Ortszeit Bedeckungsgrad in Achtel und Wolkenuntergrenze
Sa, 31.10. 20:00 4(750m)
Sa, 31.10. 19:55 3-4(750m)
Sa, 31.10. 19:00 2(750m)
Sa, 31.10. 18:55 1-2(750m)
Sa, 31.10. 18:00 3(750m)
Sa, 31.10. 17:55 3-4(750m)
Sa, 31.10. 17:00 2(750m)
Ortszeit Luftdruck NN (hPa) Tendenz (hPa in 3 Std.)
Sa, 31.10. 19:00 1023 0,0
Sa, 31.10. 13:00 1023 - 0,8
Sa, 31.10. 7:00 1023 + 0,1
Sa, 31.10. 1:00 1024 + 0,5
Fr, 30.10. 19:00 1023 + 0,7
Fr, 30.10. 13:00 1022 - 0,7
Fr, 30.10. 7:00 1021 + 0,3
Fr, 30.10. 1:00 1021 - 0,1
Ortszeit Luftdruck NN (hPa) Tendenz (hPa in 3 Std.)
Sa, 31.10. 20:00 1023 0,0
Sa, 31.10. 19:55 1023 keine Meldung
Sa, 31.10. 19:00 1023 0,0
Sa, 31.10. 18:55 1023 keine Meldung
Sa, 31.10. 18:00 1023 0,0
Sa, 31.10. 17:55 1023 keine Meldung
Sa, 31.10. 17:00 1023 0,0
Ortszeit Schneehöhe (cm)
Sa, 31.10. 19:00 -
Sa, 31.10. 13:00 -
Sa, 31.10. 7:00 0
Sa, 31.10. 1:00 -
Fr, 30.10. 19:00 -
Fr, 30.10. 13:00 -
Fr, 30.10. 7:00 0
Fr, 30.10. 1:00 -
Ortszeit Schneehöhe (cm)
Sa, 31.10. 20:00 -
Sa, 31.10. 19:55 -
Sa, 31.10. 19:00 -
Sa, 31.10. 18:55 -
Sa, 31.10. 18:00 -
Sa, 31.10. 17:55 -
Sa, 31.10. 17:00 -
Link zu dieser Seite / Seite empfehlen

Das Wetter in ...